RKJK/KUV METAR and TAF weather

Enter ICAO airport designator
Station Type Date Time Source
RKJK METAR 2021/05/11 01:34 UTC NOAA

RKJK 110134Z 08008KT 2SM RA BR SCT003 OVC019 15/14 A2990 RMK AO2A VIS 2V2 3/4 CIG 004 RWY18 SLP129 FZRANO $


Station Type Date Time Source
RKJK Decoded METAR 2021/05/11 01:34 UTC NOAA

Kunsan Ab, Korea, South (RKJK) 35-55N 126-37E 10M
May 10, 2021 - 09:34 PM EDT / 2021.05.11 0134 UTC
Wind: from the E (080 degrees) at 9 MPH (8 KT):0
Visibility: 2 mile(s):0
Sky conditions: overcast
Weather: rain; mist
Temperature: 59 F (15 C)
Dew Point: 57 F (14 C)
Relative Humidity: 93%
Pressure (altimeter): 29.9 in. Hg (1012 hPa)
ob: RKJK 110134Z 08008KT 2SM RA BR SCT003 OVC019 15/14 A2990 RMK AO2A VIS 2V2 3/4 CIG 004 RWY18 SLP129 FZRANO
cycle: 1

Station Type Date Time Source
RKJK TAF 2021/05/11 01:33 UTC NOAA

TAF TAF
AMD RKJK 110125Z 1101/1206 08009KT 3200 +SHRA SCT002 BKN020 OVC030 QNH2988INS
BECMG 1102/1103 09009KT 4800 BR BKN025 QNH2984INS
BECMG 1103/1104 08009KT 9999 NSW SCT025 BKN040 QNH2983INS
BECMG 1106/1107 08009KT 9999 SCT070 QNH2981INS
BECMG 1117/1118 05009KT 6000 BR SCT040 QNH2984INS
TEMPO 1119/1122 3200 BR
BECMG 1123/1124 08009KT 9999 NSW SCT050 QNH2986INS TX20/1106Z TN14/1121Z

Example: see airport list